sensor_id;sensor_type;location;lat;lon;timestamp;P1;durP1;ratioP1;P2;durP2;ratioP2
21543;SDS011;10933;50.754;11.508;2022-07-29T00:00:02;6.82;;;2.03;;
21543;SDS011;10933;50.754;11.508;2022-07-29T00:02:31;3.05;;;1.60;;
21543;SDS011;10933;50.754;11.508;2022-07-29T00:04:57;2.25;;;2.05;;
21543;SDS011;10933;50.754;11.508;2022-07-29T00:07:23;3.00;;;1.90;;
21543;SDS011;10933;50.754;11.508;2022-07-29T00:09:49;5.32;;;1.98;;
21543;SDS011;10933;50.754;11.508;2022-07-29T00:12:15;2.13;;;1.92;;
21543;SDS011;10933;50.754;11.508;2022-07-29T00:14:42;2.30;;;2.10;;
21543;SDS011;10933;50.754;11.508;2022-07-29T00:17:07;7.97;;;2.10;;
21543;SDS011;10933;50.754;11.508;2022-07-29T00:19:33;2.33;;;2.10;;
21543;SDS011;10933;50.754;11.508;2022-07-29T00:21:59;2.17;;;1.98;;
21543;SDS011;10933;50.754;11.508;2022-07-29T00:24:26;2.17;;;2.08;;
21543;SDS011;10933;50.754;11.508;2022-07-29T00:26:52;2.40;;;2.17;;
21543;SDS011;10933;50.754;11.508;2022-07-29T00:29:18;2.63;;;2.35;;
21543;SDS011;10933;50.754;11.508;2022-07-29T00:31:44;2.35;;;2.15;;
21543;SDS011;10933;50.754;11.508;2022-07-29T00:34:09;2.58;;;2.35;;
21543;SDS011;10933;50.754;11.508;2022-07-29T00:36:54;4.30;;;2.03;;
21543;SDS011;10933;50.754;11.508;2022-07-29T00:39:20;3.35;;;1.70;;
21543;SDS011;10933;50.754;11.508;2022-07-29T00:41:46;2.97;;;2.25;;
21543;SDS011;10933;50.754;11.508;2022-07-29T00:44:12;2.78;;;2.08;;
21543;SDS011;10933;50.754;11.508;2022-07-29T00:46:38;2.70;;;2.30;;
21543;SDS011;10933;50.754;11.508;2022-07-29T00:49:03;3.08;;;1.73;;
21543;SDS011;10933;50.754;11.508;2022-07-29T00:51:29;2.00;;;1.80;;
21543;SDS011;10933;50.754;11.508;2022-07-29T00:53:56;2.15;;;1.83;;
21543;SDS011;10933;50.754;11.508;2022-07-29T00:56:22;2.28;;;1.88;;
21543;SDS011;10933;50.754;11.508;2022-07-29T00:58:48;3.83;;;1.95;;
21543;SDS011;10933;50.754;11.508;2022-07-29T01:01:15;2.92;;;1.92;;
21543;SDS011;10933;50.754;11.508;2022-07-29T01:03:41;2.95;;;2.08;;
21543;SDS011;10933;50.754;11.508;2022-07-29T01:06:07;2.08;;;1.98;;
21543;SDS011;10933;50.754;11.508;2022-07-29T01:08:34;1.98;;;1.88;;
21543;SDS011;10933;50.754;11.508;2022-07-29T01:11:01;2.40;;;2.20;;
21543;SDS011;10933;50.754;11.508;2022-07-29T01:13:28;4.28;;;1.85;;
21543;SDS011;10933;50.754;11.508;2022-07-29T01:15:58;2.28;;;2.08;;
21543;SDS011;10933;50.754;11.508;2022-07-29T01:18:33;2.95;;;2.10;;
21543;SDS011;10933;50.754;11.508;2022-07-29T01:34:48;2.08;;;1.88;;
21543;SDS011;10933;50.754;11.508;2022-07-29T01:40:05;1.73;;;1.63;;
21543;SDS011;10933;50.754;11.508;2022-07-29T01:42:42;3.75;;;1.58;;
21543;SDS011;10933;50.754;11.508;2022-07-29T01:51:05;2.13;;;1.77;;
21543;SDS011;10933;50.754;11.508;2022-07-29T01:53:55;2.13;;;1.92;;
21543;SDS011;10933;50.754;11.508;2022-07-29T01:56:31;2.47;;;1.77;;
21543;SDS011;10933;50.754;11.508;2022-07-29T01:59:01;2.38;;;2.22;;
21543;SDS011;10933;50.754;11.508;2022-07-29T02:01:31;3.92;;;1.73;;
21543;SDS011;10933;50.754;11.508;2022-07-29T02:04:04;2.00;;;1.80;;
21543;SDS011;10933;50.754;11.508;2022-07-29T02:06:34;2.95;;;1.80;;
21543;SDS011;10933;50.754;11.508;2022-07-29T02:09:05;1.83;;;1.70;;
21543;SDS011;10933;50.754;11.508;2022-07-29T02:11:35;3.78;;;1.70;;
21543;SDS011;10933;50.754;11.508;2022-07-29T02:14:03;1.90;;;1.67;;
21543;SDS011;10933;50.754;11.508;2022-07-29T02:16:30;2.63;;;1.95;;
21543;SDS011;10933;50.754;11.508;2022-07-29T02:19:01;2.80;;;1.90;;
21543;SDS011;10933;50.754;11.508;2022-07-29T02:21:30;2.95;;;2.20;;
21543;SDS011;10933;50.754;11.508;2022-07-29T02:23:59;2.15;;;1.98;;
21543;SDS011;10933;50.754;11.508;2022-07-29T02:26:27;2.03;;;1.83;;
21543;SDS011;10933;50.754;11.508;2022-07-29T02:28:57;3.63;;;1.90;;
21543;SDS011;10933;50.754;11.508;2022-07-29T02:31:32;2.70;;;2.08;;
21543;SDS011;10933;50.754;11.508;2022-07-29T02:34:01;6.10;;;2.30;;
21543;SDS011;10933;50.754;11.508;2022-07-29T02:36:31;1.65;;;1.55;;
21543;SDS011;10933;50.754;11.508;2022-07-29T02:38:59;3.28;;;2.35;;
21543;SDS011;10933;50.754;11.508;2022-07-29T02:41:50;3.25;;;2.10;;
21543;SDS011;10933;50.754;11.508;2022-07-29T02:44:22;6.40;;;2.20;;
21543;SDS011;10933;50.754;11.508;2022-07-29T02:46:57;3.08;;;2.05;;
21543;SDS011;10933;50.754;11.508;2022-07-29T02:54:39;1.80;;;1.70;;
21543;SDS011;10933;50.754;11.508;2022-07-29T02:57:20;2.35;;;1.92;;
21543;SDS011;10933;50.754;11.508;2022-07-29T03:00:08;1.98;;;1.77;;
21543;SDS011;10933;50.754;11.508;2022-07-29T03:02:37;2.20;;;1.95;;
21543;SDS011;10933;50.754;11.508;2022-07-29T03:05:08;5.40;;;2.22;;
21543;SDS011;10933;50.754;11.508;2022-07-29T03:07:45;1.70;;;1.60;;
21543;SDS011;10933;50.754;11.508;2022-07-29T03:10:16;2.92;;;1.85;;
21543;SDS011;10933;50.754;11.508;2022-07-29T03:12:43;4.95;;;1.98;;
21543;SDS011;10933;50.754;11.508;2022-07-29T03:15:10;2.22;;;1.80;;
21543;SDS011;10933;50.754;11.508;2022-07-29T03:17:37;4.07;;;2.10;;
21543;SDS011;10933;50.754;11.508;2022-07-29T03:20:04;3.58;;;2.05;;
21543;SDS011;10933;50.754;11.508;2022-07-29T03:22:32;3.40;;;2.35;;
21543;SDS011;10933;50.754;11.508;2022-07-29T03:25:08;3.78;;;1.90;;
21543;SDS011;10933;50.754;11.508;2022-07-29T03:27:36;3.42;;;2.15;;
21543;SDS011;10933;50.754;11.508;2022-07-29T03:30:02;2.42;;;1.80;;
21543;SDS011;10933;50.754;11.508;2022-07-29T03:32:28;2.22;;;1.80;;
21543;SDS011;10933;50.754;11.508;2022-07-29T03:34:54;1.77;;;1.67;;
21543;SDS011;10933;50.754;11.508;2022-07-29T03:37:20;3.08;;;1.98;;
21543;SDS011;10933;50.754;11.508;2022-07-29T03:39:46;2.05;;;1.88;;
21543;SDS011;10933;50.754;11.508;2022-07-29T03:42:15;3.10;;;2.13;;
21543;SDS011;10933;50.754;11.508;2022-07-29T03:44:45;4.18;;;2.30;;
21543;SDS011;10933;50.754;11.508;2022-07-29T03:47:13;2.60;;;2.10;;
21543;SDS011;10933;50.754;11.508;2022-07-29T03:49:44;2.85;;;2.17;;
21543;SDS011;10933;50.754;11.508;2022-07-29T03:52:13;3.88;;;2.25;;
21543;SDS011;10933;50.754;11.508;2022-07-29T03:54:40;2.85;;;2.22;;
21543;SDS011;10933;50.754;11.508;2022-07-29T03:57:06;2.83;;;2.05;;
21543;SDS011;10933;50.754;11.508;2022-07-29T03:59:35;6.70;;;2.15;;
21543;SDS011;10933;50.754;11.508;2022-07-29T04:02:03;2.88;;;2.17;;
21543;SDS011;10933;50.754;11.508;2022-07-29T04:04:33;3.83;;;1.90;;
21543;SDS011;10933;50.754;11.508;2022-07-29T04:07:00;2.55;;;2.35;;
21543;SDS011;10933;50.754;11.508;2022-07-29T04:09:26;3.28;;;2.30;;
21543;SDS011;10933;50.754;11.508;2022-07-29T04:11:51;3.60;;;2.20;;
21543;SDS011;10933;50.754;11.508;2022-07-29T04:14:18;3.38;;;1.90;;
21543;SDS011;10933;50.754;11.508;2022-07-29T04:16:45;2.67;;;1.85;;
21543;SDS011;10933;50.754;11.508;2022-07-29T04:19:11;3.10;;;2.50;;
21543;SDS011;10933;50.754;11.508;2022-07-29T04:21:37;3.65;;;1.83;;
21543;SDS011;10933;50.754;11.508;2022-07-29T04:24:04;4.82;;;2.10;;
21543;SDS011;10933;50.754;11.508;2022-07-29T04:26:31;2.40;;;2.20;;
21543;SDS011;10933;50.754;11.508;2022-07-29T04:28:59;2.97;;;2.08;;
21543;SDS011;10933;50.754;11.508;2022-07-29T04:31:26;3.97;;;1.83;;
21543;SDS011;10933;50.754;11.508;2022-07-29T04:33:52;4.32;;;2.10;;
21543;SDS011;10933;50.754;11.508;2022-07-29T04:36:18;2.47;;;2.33;;
21543;SDS011;10933;50.754;11.508;2022-07-29T04:38:43;4.80;;;2.55;;
21543;SDS011;10933;50.754;11.508;2022-07-29T04:41:09;3.63;;;2.35;;
21543;SDS011;10933;50.754;11.508;2022-07-29T04:43:35;5.63;;;2.05;;
21543;SDS011;10933;50.754;11.508;2022-07-29T04:46:01;2.33;;;1.92;;
21543;SDS011;10933;50.754;11.508;2022-07-29T04:48:28;2.08;;;1.92;;
21543;SDS011;10933;50.754;11.508;2022-07-29T04:50:54;3.40;;;1.83;;
21543;SDS011;10933;50.754;11.508;2022-07-29T04:53:21;2.58;;;2.13;;
21543;SDS011;10933;50.754;11.508;2022-07-29T04:55:47;2.80;;;2.13;;
21543;SDS011;10933;50.754;11.508;2022-07-29T04:58:13;3.03;;;2.72;;
21543;SDS011;10933;50.754;11.508;2022-07-29T05:00:39;5.18;;;2.00;;
21543;SDS011;10933;50.754;11.508;2022-07-29T05:03:05;4.50;;;2.10;;
21543;SDS011;10933;50.754;11.508;2022-07-29T05:05:31;5.20;;;2.05;;
21543;SDS011;10933;50.754;11.508;2022-07-29T05:07:57;3.60;;;2.25;;
21543;SDS011;10933;50.754;11.508;2022-07-29T05:10:23;4.25;;;2.10;;
21543;SDS011;10933;50.754;11.508;2022-07-29T05:12:48;2.35;;;2.10;;
21543;SDS011;10933;50.754;11.508;2022-07-29T05:15:14;2.60;;;2.40;;
21543;SDS011;10933;50.754;11.508;2022-07-29T05:17:40;4.93;;;2.00;;
21543;SDS011;10933;50.754;11.508;2022-07-29T05:20:06;2.15;;;2.03;;
21543;SDS011;10933;50.754;11.508;2022-07-29T05:22:32;10.43;;;2.50;;
21543;SDS011;10933;50.754;11.508;2022-07-29T05:24:58;8.30;;;2.60;;
21543;SDS011;10933;50.754;11.508;2022-07-29T05:27:23;6.95;;;1.92;;
21543;SDS011;10933;50.754;11.508;2022-07-29T05:29:49;4.45;;;2.25;;
21543;SDS011;10933;50.754;11.508;2022-07-29T05:32:15;3.58;;;2.33;;
21543;SDS011;10933;50.754;11.508;2022-07-29T05:34:41;2.35;;;2.15;;
21543;SDS011;10933;50.754;11.508;2022-07-29T05:37:07;2.92;;;2.47;;
21543;SDS011;10933;50.754;11.508;2022-07-29T05:39:33;4.07;;;2.40;;
21543;SDS011;10933;50.754;11.508;2022-07-29T05:41:58;3.08;;;2.47;;
21543;SDS011;10933;50.754;11.508;2022-07-29T05:44:24;4.68;;;2.30;;
21543;SDS011;10933;50.754;11.508;2022-07-29T05:46:50;8.60;;;2.60;;
21543;SDS011;10933;50.754;11.508;2022-07-29T05:49:16;2.53;;;2.30;;
21543;SDS011;10933;50.754;11.508;2022-07-29T05:51:41;2.40;;;1.92;;
21543;SDS011;10933;50.754;11.508;2022-07-29T05:54:07;3.28;;;2.15;;
21543;SDS011;10933;50.754;11.508;2022-07-29T05:56:35;3.13;;;2.00;;
21543;SDS011;10933;50.754;11.508;2022-07-29T05:59:07;4.43;;;2.30;;
21543;SDS011;10933;50.754;11.508;2022-07-29T06:01:33;2.60;;;1.85;;
21543;SDS011;10933;50.754;11.508;2022-07-29T06:03:59;2.33;;;1.95;;
21543;SDS011;10933;50.754;11.508;2022-07-29T06:06:24;6.88;;;2.00;;
21543;SDS011;10933;50.754;11.508;2022-07-29T06:08:50;3.78;;;2.03;;
21543;SDS011;10933;50.754;11.508;2022-07-29T06:11:16;2.35;;;1.73;;
21543;SDS011;10933;50.754;11.508;2022-07-29T06:13:41;8.25;;;1.90;;
21543;SDS011;10933;50.754;11.508;2022-07-29T06:16:07;7.72;;;2.10;;
21543;SDS011;10933;50.754;11.508;2022-07-29T06:18:33;7.38;;;2.10;;
21543;SDS011;10933;50.754;11.508;2022-07-29T06:20:59;9.98;;;2.42;;
21543;SDS011;10933;50.754;11.508;2022-07-29T06:23:24;7.57;;;2.30;;
21543;SDS011;10933;50.754;11.508;2022-07-29T06:25:50;4.40;;;2.33;;
21543;SDS011;10933;50.754;11.508;2022-07-29T06:28:16;3.72;;;1.92;;
21543;SDS011;10933;50.754;11.508;2022-07-29T06:30:42;5.30;;;1.80;;
21543;SDS011;10933;50.754;11.508;2022-07-29T06:33:07;2.28;;;1.48;;
21543;SDS011;10933;50.754;11.508;2022-07-29T06:35:34;3.58;;;1.60;;
21543;SDS011;10933;50.754;11.508;2022-07-29T06:38:00;3.13;;;1.60;;
21543;SDS011;10933;50.754;11.508;2022-07-29T06:40:29;5.35;;;1.83;;
21543;SDS011;10933;50.754;11.508;2022-07-29T06:43:13;4.88;;;2.00;;
21543;SDS011;10933;50.754;11.508;2022-07-29T06:45:39;4.63;;;1.40;;
21543;SDS011;10933;50.754;11.508;2022-07-29T06:48:06;1.77;;;1.10;;
21543;SDS011;10933;50.754;11.508;2022-07-29T06:50:31;7.68;;;1.23;;
21543;SDS011;10933;50.754;11.508;2022-07-29T06:52:57;2.65;;;1.23;;
21543;SDS011;10933;50.754;11.508;2022-07-29T06:55:23;9.15;;;1.58;;
21543;SDS011;10933;50.754;11.508;2022-07-29T06:57:49;3.25;;;1.63;;
21543;SDS011;10933;50.754;11.508;2022-07-29T07:00:15;4.75;;;1.20;;
21543;SDS011;10933;50.754;11.508;2022-07-29T07:02:41;2.25;;;1.50;;
21543;SDS011;10933;50.754;11.508;2022-07-29T07:05:07;3.65;;;1.38;;
21543;SDS011;10933;50.754;11.508;2022-07-29T07:07:33;2.30;;;1.40;;
21543;SDS011;10933;50.754;11.508;2022-07-29T07:09:58;1.88;;;1.48;;
21543;SDS011;10933;50.754;11.508;2022-07-29T07:12:24;3.20;;;1.73;;
21543;SDS011;10933;50.754;11.508;2022-07-29T07:14:50;1.30;;;1.20;;
21543;SDS011;10933;50.754;11.508;2022-07-29T07:17:16;2.20;;;1.65;;
21543;SDS011;10933;50.754;11.508;2022-07-29T07:19:42;3.13;;;1.60;;
21543;SDS011;10933;50.754;11.508;2022-07-29T07:22:10;4.97;;;1.42;;
21543;SDS011;10933;50.754;11.508;2022-07-29T07:24:36;3.53;;;1.30;;
21543;SDS011;10933;50.754;11.508;2022-07-29T07:27:02;1.50;;;1.13;;
21543;SDS011;10933;50.754;11.508;2022-07-29T07:29:28;1.73;;;1.33;;
21543;SDS011;10933;50.754;11.508;2022-07-29T07:31:55;1.58;;;1.35;;
21543;SDS011;10933;50.754;11.508;2022-07-29T07:34:23;2.80;;;1.52;;
21543;SDS011;10933;50.754;11.508;2022-07-29T07:36:49;5.88;;;1.58;;
21543;SDS011;10933;50.754;11.508;2022-07-29T07:39:15;1.80;;;1.20;;
21543;SDS011;10933;50.754;11.508;2022-07-29T07:41:41;1.80;;;1.30;;
21543;SDS011;10933;50.754;11.508;2022-07-29T07:44:07;2.45;;;1.58;;
21543;SDS011;10933;50.754;11.508;2022-07-29T07:46:33;3.35;;;1.40;;
21543;SDS011;10933;50.754;11.508;2022-07-29T07:48:59;4.72;;;1.40;;
21543;SDS011;10933;50.754;11.508;2022-07-29T07:51:25;2.72;;;1.48;;
21543;SDS011;10933;50.754;11.508;2022-07-29T07:53:51;2.67;;;1.52;;
21543;SDS011;10933;50.754;11.508;2022-07-29T07:56:18;2.00;;;1.20;;
21543;SDS011;10933;50.754;11.508;2022-07-29T07:58:44;1.83;;;1.38;;
21543;SDS011;10933;50.754;11.508;2022-07-29T08:01:10;2.28;;;1.35;;
21543;SDS011;10933;50.754;11.508;2022-07-29T08:03:36;3.95;;;1.50;;
21543;SDS011;10933;50.754;11.508;2022-07-29T08:06:03;1.83;;;1.52;;
21543;SDS011;10933;50.754;11.508;2022-07-29T08:08:30;8.68;;;1.50;;
21543;SDS011;10933;50.754;11.508;2022-07-29T08:10:56;7.05;;;1.65;;
21543;SDS011;10933;50.754;11.508;2022-07-29T08:13:23;1.63;;;1.50;;
21543;SDS011;10933;50.754;11.508;2022-07-29T08:15:52;2.35;;;1.48;;
21543;SDS011;10933;50.754;11.508;2022-07-29T08:18:23;2.05;;;1.67;;
21543;SDS011;10933;50.754;11.508;2022-07-29T08:20:49;3.58;;;1.67;;
21543;SDS011;10933;50.754;11.508;2022-07-29T08:23:15;3.97;;;2.00;;
21543;SDS011;10933;50.754;11.508;2022-07-29T08:25:43;3.22;;;1.35;;
21543;SDS011;10933;50.754;11.508;2022-07-29T08:28:09;2.70;;;1.50;;
21543;SDS011;10933;50.754;11.508;2022-07-29T08:30:36;2.30;;;2.10;;
21543;SDS011;10933;50.754;11.508;2022-07-29T08:33:02;13.52;;;2.03;;
21543;SDS011;10933;50.754;11.508;2022-07-29T08:35:28;2.78;;;1.70;;
21543;SDS011;10933;50.754;11.508;2022-07-29T08:37:54;3.80;;;1.65;;
21543;SDS011;10933;50.754;11.508;2022-07-29T08:40:21;3.45;;;2.00;;
21543;SDS011;10933;50.754;11.508;2022-07-29T08:42:49;4.30;;;1.58;;
21543;SDS011;10933;50.754;11.508;2022-07-29T08:45:15;2.88;;;1.83;;
21543;SDS011;10933;50.754;11.508;2022-07-29T08:47:43;2.50;;;1.65;;
21543;SDS011;10933;50.754;11.508;2022-07-29T08:50:10;10.07;;;2.05;;
21543;SDS011;10933;50.754;11.508;2022-07-29T08:52:37;2.25;;;1.65;;
21543;SDS011;10933;50.754;11.508;2022-07-29T08:55:08;1.90;;;1.60;;
21543;SDS011;10933;50.754;11.508;2022-07-29T08:57:35;3.38;;;1.33;;
21543;SDS011;10933;50.754;11.508;2022-07-29T09:00:04;3.58;;;1.45;;
21543;SDS011;10933;50.754;11.508;2022-07-29T09:02:35;4.95;;;1.50;;
21543;SDS011;10933;50.754;11.508;2022-07-29T09:05:05;2.10;;;1.42;;
21543;SDS011;10933;50.754;11.508;2022-07-29T09:07:32;2.22;;;1.40;;
21543;SDS011;10933;50.754;11.508;2022-07-29T09:09:59;5.10;;;1.83;;
21543;SDS011;10933;50.754;11.508;2022-07-29T09:12:26;5.00;;;1.60;;
21543;SDS011;10933;50.754;11.508;2022-07-29T09:14:53;4.18;;;1.60;;
21543;SDS011;10933;50.754;11.508;2022-07-29T09:17:38;2.35;;;1.50;;
21543;SDS011;10933;50.754;11.508;2022-07-29T09:20:10;4.80;;;1.92;;
21543;SDS011;10933;50.754;11.508;2022-07-29T09:22:41;5.95;;;1.75;;
21543;SDS011;10933;50.754;11.508;2022-07-29T09:25:07;5.63;;;1.98;;
21543;SDS011;10933;50.754;11.508;2022-07-29T09:27:34;4.80;;;1.60;;
21543;SDS011;10933;50.754;11.508;2022-07-29T09:30:04;5.13;;;2.00;;
21543;SDS011;10933;50.754;11.508;2022-07-29T09:32:54;3.65;;;2.00;;
21543;SDS011;10933;50.754;11.508;2022-07-29T09:35:22;3.90;;;1.85;;
21543;SDS011;10933;50.754;11.508;2022-07-29T09:37:50;1.75;;;1.60;;
21543;SDS011;10933;50.754;11.508;2022-07-29T09:40:20;1.92;;;1.50;;
21543;SDS011;10933;50.754;11.508;2022-07-29T09:42:47;2.65;;;1.30;;
21543;SDS011;10933;50.754;11.508;2022-07-29T09:45:30;3.42;;;1.50;;
21543;SDS011;10933;50.754;11.508;2022-07-29T09:47:58;3.38;;;1.42;;
21543;SDS011;10933;50.754;11.508;2022-07-29T09:50:38;1.88;;;1.40;;
21543;SDS011;10933;50.754;11.508;2022-07-29T09:53:05;3.70;;;1.00;;
21543;SDS011;10933;50.754;11.508;2022-07-29T09:55:31;16.83;;;2.20;;
21543;SDS011;10933;50.754;11.508;2022-07-29T10:00:44;2.95;;;1.30;;
21543;SDS011;10933;50.754;11.508;2022-07-29T10:03:12;5.60;;;1.40;;
21543;SDS011;10933;50.754;11.508;2022-07-29T10:05:39;2.53;;;1.08;;
21543;SDS011;10933;50.754;11.508;2022-07-29T10:08:06;1.75;;;1.10;;
21543;SDS011;10933;50.754;11.508;2022-07-29T10:10:34;3.60;;;1.33;;
21543;SDS011;10933;50.754;11.508;2022-07-29T10:13:04;1.40;;;1.10;;
21543;SDS011;10933;50.754;11.508;2022-07-29T10:15:33;4.60;;;1.60;;
21543;SDS011;10933;50.754;11.508;2022-07-29T10:18:06;2.13;;;1.60;;
21543;SDS011;10933;50.754;11.508;2022-07-29T10:20:35;3.78;;;1.55;;
21543;SDS011;10933;50.754;11.508;2022-07-29T10:23:02;3.80;;;1.38;;
21543;SDS011;10933;50.754;11.508;2022-07-29T10:25:28;2.75;;;1.30;;
21543;SDS011;10933;50.754;11.508;2022-07-29T10:27:55;2.38;;;1.17;;
21543;SDS011;10933;50.754;11.508;2022-07-29T10:30:21;1.20;;;0.95;;
21543;SDS011;10933;50.754;11.508;2022-07-29T10:36:02;2.28;;;1.10;;
21543;SDS011;10933;50.754;11.508;2022-07-29T10:41:56;2.72;;;1.00;;
21543;SDS011;10933;50.754;11.508;2022-07-29T10:44:30;2.88;;;1.33;;
21543;SDS011;10933;50.754;11.508;2022-07-29T10:46:58;2.47;;;1.13;;
21543;SDS011;10933;50.754;11.508;2022-07-29T10:49:25;3.50;;;1.27;;
21543;SDS011;10933;50.754;11.508;2022-07-29T10:54:36;2.85;;;1.30;;
21543;SDS011;10933;50.754;11.508;2022-07-29T10:57:14;2.10;;;1.10;;
21543;SDS011;10933;50.754;11.508;2022-07-29T10:59:43;2.67;;;1.00;;
21543;SDS011;10933;50.754;11.508;2022-07-29T11:07:25;1.92;;;1.20;;
21543;SDS011;10933;50.754;11.508;2022-07-29T11:15:05;3.13;;;1.40;;
21543;SDS011;10933;50.754;11.508;2022-07-29T11:20:34;1.30;;;1.15;;
21543;SDS011;10933;50.754;11.508;2022-07-29T11:23:25;3.05;;;1.20;;
21543;SDS011;10933;50.754;11.508;2022-07-29T11:28:41;3.97;;;1.33;;
21543;SDS011;10933;50.754;11.508;2022-07-29T11:31:14;5.53;;;1.77;;
21543;SDS011;10933;50.754;11.508;2022-07-29T11:33:44;2.03;;;1.30;;
21543;SDS011;10933;50.754;11.508;2022-07-29T11:36:11;2.08;;;1.48;;
21543;SDS011;10933;50.754;11.508;2022-07-29T11:38:39;3.22;;;1.67;;
21543;SDS011;10933;50.754;11.508;2022-07-29T11:41:22;1.60;;;1.45;;
21543;SDS011;10933;50.754;11.508;2022-07-29T11:43:50;2.58;;;1.63;;
21543;SDS011;10933;50.754;11.508;2022-07-29T11:46:40;2.35;;;1.70;;
21543;SDS011;10933;50.754;11.508;2022-07-29T11:49:12;2.72;;;1.70;;
21543;SDS011;10933;50.754;11.508;2022-07-29T11:51:43;2.63;;;1.60;;
21543;SDS011;10933;50.754;11.508;2022-07-29T11:54:16;2.67;;;1.70;;
21543;SDS011;10933;50.754;11.508;2022-07-29T11:56:49;3.78;;;1.67;;
21543;SDS011;10933;50.754;11.508;2022-07-29T11:59:16;2.45;;;1.70;;
21543;SDS011;10933;50.754;11.508;2022-07-29T12:01:53;1.70;;;1.60;;
21543;SDS011;10933;50.754;11.508;2022-07-29T12:04:21;2.08;;;1.90;;
21543;SDS011;10933;50.754;11.508;2022-07-29T12:06:51;1.67;;;1.58;;
21543;SDS011;10933;50.754;11.508;2022-07-29T12:09:18;3.53;;;1.85;;
21543;SDS011;10933;50.754;11.508;2022-07-29T12:11:45;2.17;;;1.80;;
21543;SDS011;10933;50.754;11.508;2022-07-29T12:14:28;1.75;;;1.65;;
21543;SDS011;10933;50.754;11.508;2022-07-29T12:16:56;2.97;;;1.42;;
21543;SDS011;10933;50.754;11.508;2022-07-29T12:19:23;4.80;;;1.98;;
21543;SDS011;10933;50.754;11.508;2022-07-29T12:21:51;1.70;;;1.60;;
21543;SDS011;10933;50.754;11.508;2022-07-29T12:24:19;3.30;;;2.00;;
21543;SDS011;10933;50.754;11.508;2022-07-29T12:26:52;2.67;;;2.47;;
21543;SDS011;10933;50.754;11.508;2022-07-29T12:29:22;2.38;;;1.65;;
21543;SDS011;10933;50.754;11.508;2022-07-29T12:31:52;2.92;;;1.55;;
21543;SDS011;10933;50.754;11.508;2022-07-29T12:34:19;3.03;;;1.80;;
21543;SDS011;10933;50.754;11.508;2022-07-29T12:36:48;3.20;;;2.00;;
21543;SDS011;10933;50.754;11.508;2022-07-29T12:39:18;2.35;;;1.75;;
21543;SDS011;10933;50.754;11.508;2022-07-29T12:41:44;4.35;;;2.05;;
21543;SDS011;10933;50.754;11.508;2022-07-29T12:44:11;2.20;;;2.00;;
21543;SDS011;10933;50.754;11.508;2022-07-29T12:46:37;2.08;;;1.88;;
21543;SDS011;10933;50.754;11.508;2022-07-29T12:49:03;2.58;;;1.95;;
21543;SDS011;10933;50.754;11.508;2022-07-29T12:54:04;6.15;;;1.83;;
21543;SDS011;10933;50.754;11.508;2022-07-29T12:56:35;2.28;;;1.90;;
21543;SDS011;10933;50.754;11.508;2022-07-29T13:01:46;2.20;;;2.10;;
21543;SDS011;10933;50.754;11.508;2022-07-29T13:04:30;5.32;;;2.67;;
21543;SDS011;10933;50.754;11.508;2022-07-29T13:06:58;4.07;;;3.78;;
21543;SDS011;10933;50.754;11.508;2022-07-29T13:09:35;2.97;;;2.50;;
21543;SDS011;10933;50.754;11.508;2022-07-29T13:12:10;2.30;;;2.20;;
21543;SDS011;10933;50.754;11.508;2022-07-29T13:14:41;3.72;;;2.50;;
21543;SDS011;10933;50.754;11.508;2022-07-29T13:17:10;2.70;;;2.50;;
21543;SDS011;10933;50.754;11.508;2022-07-29T13:19:38;2.60;;;2.42;;
21543;SDS011;10933;50.754;11.508;2022-07-29T13:22:07;4.80;;;2.67;;
21543;SDS011;10933;50.754;11.508;2022-07-29T13:24:59;4.85;;;2.97;;
21543;SDS011;10933;50.754;11.508;2022-07-29T13:27:31;5.47;;;3.13;;
21543;SDS011;10933;50.754;11.508;2022-07-29T13:29:59;2.97;;;2.78;;
21543;SDS011;10933;50.754;11.508;2022-07-29T13:32:28;4.78;;;3.10;;
21543;SDS011;10933;50.754;11.508;2022-07-29T13:34:56;6.30;;;2.60;;
21543;SDS011;10933;50.754;11.508;2022-07-29T13:37:25;3.83;;;2.38;;
21543;SDS011;10933;50.754;11.508;2022-07-29T13:39:54;2.30;;;2.10;;
21543;SDS011;10933;50.754;11.508;2022-07-29T13:42:21;2.58;;;1.92;;
21543;SDS011;10933;50.754;11.508;2022-07-29T13:44:47;1.80;;;1.70;;
21543;SDS011;10933;50.754;11.508;2022-07-29T13:47:15;1.98;;;1.77;;
21543;SDS011;10933;50.754;11.508;2022-07-29T13:49:42;2.15;;;1.85;;
21543;SDS011;10933;50.754;11.508;2022-07-29T13:52:08;1.30;;;1.20;;
21543;SDS011;10933;50.754;11.508;2022-07-29T13:54:34;1.40;;;1.25;;
21543;SDS011;10933;50.754;11.508;2022-07-29T13:57:02;1.50;;;1.40;;
21543;SDS011;10933;50.754;11.508;2022-07-29T13:59:29;1.80;;;1.70;;
21543;SDS011;10933;50.754;11.508;2022-07-29T14:01:55;1.38;;;1.27;;
21543;SDS011;10933;50.754;11.508;2022-07-29T14:04:21;1.60;;;1.50;;
21543;SDS011;10933;50.754;11.508;2022-07-29T14:06:48;2.75;;;1.67;;
21543;SDS011;10933;50.754;11.508;2022-07-29T14:09:15;1.60;;;1.50;;
21543;SDS011;10933;50.754;11.508;2022-07-29T14:11:41;1.52;;;1.17;;
21543;SDS011;10933;50.754;11.508;2022-07-29T14:14:08;1.80;;;1.40;;
21543;SDS011;10933;50.754;11.508;2022-07-29T14:16:35;1.88;;;1.05;;
21543;SDS011;10933;50.754;11.508;2022-07-29T14:19:01;1.50;;;1.40;;
21543;SDS011;10933;50.754;11.508;2022-07-29T14:21:28;3.58;;;1.25;;
21543;SDS011;10933;50.754;11.508;2022-07-29T14:23:55;0.88;;;0.88;;
21543;SDS011;10933;50.754;11.508;2022-07-29T14:26:21;1.15;;;0.80;;
21543;SDS011;10933;50.754;11.508;2022-07-29T14:28:48;1.00;;;0.90;;
21543;SDS011;10933;50.754;11.508;2022-07-29T14:31:15;2.05;;;1.00;;
21543;SDS011;10933;50.754;11.508;2022-07-29T14:33:41;2.20;;;0.85;;
21543;SDS011;10933;50.754;11.508;2022-07-29T14:36:07;0.60;;;0.60;;
21543;SDS011;10933;50.754;11.508;2022-07-29T14:38:34;0.50;;;0.50;;
21543;SDS011;10933;50.754;11.508;2022-07-29T14:41:02;0.50;;;0.50;;
21543;SDS011;10933;50.754;11.508;2022-07-29T14:43:28;0.50;;;0.50;;
21543;SDS011;10933;50.754;11.508;2022-07-29T14:45:55;0.35;;;0.35;;
21543;SDS011;10933;50.754;11.508;2022-07-29T14:48:21;0.40;;;0.40;;
21543;SDS011;10933;50.754;11.508;2022-07-29T14:50:47;1.45;;;0.40;;
21543;SDS011;10933;50.754;11.508;2022-07-29T14:53:13;0.35;;;0.35;;
21543;SDS011;10933;50.754;11.508;2022-07-29T14:55:39;0.57;;;0.40;;
21543;SDS011;10933;50.754;11.508;2022-07-29T14:58:06;0.65;;;0.50;;
21543;SDS011;10933;50.754;11.508;2022-07-29T15:00:33;1.05;;;0.50;;
21543;SDS011;10933;50.754;11.508;2022-07-29T15:02:59;0.77;;;0.47;;
21543;SDS011;10933;50.754;11.508;2022-07-29T15:05:26;0.50;;;0.50;;
21543;SDS011;10933;50.754;11.508;2022-07-29T15:07:52;0.55;;;0.50;;
21543;SDS011;10933;50.754;11.508;2022-07-29T15:10:18;1.05;;;0.50;;
21543;SDS011;10933;50.754;11.508;2022-07-29T15:12:44;0.43;;;0.43;;
21543;SDS011;10933;50.754;11.508;2022-07-29T15:15:10;0.60;;;0.55;;
21543;SDS011;10933;50.754;11.508;2022-07-29T15:17:37;0.50;;;0.50;;
21543;SDS011;10933;50.754;11.508;2022-07-29T15:20:03;1.00;;;0.30;;
21543;SDS011;10933;50.754;11.508;2022-07-29T15:22:29;0.45;;;0.40;;
21543;SDS011;10933;50.754;11.508;2022-07-29T15:24:55;0.40;;;0.40;;
21543;SDS011;10933;50.754;11.508;2022-07-29T15:27:22;0.30;;;0.30;;
21543;SDS011;10933;50.754;11.508;2022-07-29T15:29:48;0.40;;;0.40;;
21543;SDS011;10933;50.754;11.508;2022-07-29T15:32:14;0.68;;;0.50;;
21543;SDS011;10933;50.754;11.508;2022-07-29T15:34:41;0.40;;;0.40;;
21543;SDS011;10933;50.754;11.508;2022-07-29T15:37:07;0.40;;;0.40;;
21543;SDS011;10933;50.754;11.508;2022-07-29T15:39:34;0.50;;;0.50;;